sensor_id;sensor_type;location;lat;lon;timestamp;pressure;altitude;pressure_sealevel;temperature;humidity
10824;BME280;39116;59.332;18.034;2023-03-22T00:00:44;100231.38;;;2.42;100.00
10824;BME280;39116;59.332;18.034;2023-03-22T00:03:09;100239.94;;;2.41;100.00
10824;BME280;39116;59.332;18.034;2023-03-22T00:05:31;100243.56;;;2.22;100.00
10824;BME280;39116;59.332;18.034;2023-03-22T00:07:53;100241.19;;;2.54;100.00
10824;BME280;39116;59.332;18.034;2023-03-22T00:10:17;100221.22;;;2.45;100.00
10824;BME280;39116;59.332;18.034;2023-03-22T00:12:39;100229.75;;;2.71;100.00
10824;BME280;39116;59.332;18.034;2023-03-22T00:15:01;100221.78;;;2.63;100.00
10824;BME280;39116;59.332;18.034;2023-03-22T00:17:23;100209.19;;;2.71;100.00
10824;BME280;39116;59.332;18.034;2023-03-22T00:19:46;100209.84;;;2.65;100.00
10824;BME280;39116;59.332;18.034;2023-03-22T00:22:08;100214.72;;;2.56;100.00
10824;BME280;39116;59.332;18.034;2023-03-22T00:24:31;100204.28;;;2.79;100.00
10824;BME280;39116;59.332;18.034;2023-03-22T00:26:53;100199.88;;;2.75;100.00
10824;BME280;39116;59.332;18.034;2023-03-22T00:29:15;100199.41;;;2.59;100.00
10824;BME280;39116;59.332;18.034;2023-03-22T00:31:36;100186.19;;;2.76;100.00
10824;BME280;39116;59.332;18.034;2023-03-22T00:33:58;100178.31;;;2.70;100.00
10824;BME280;39116;59.332;18.034;2023-03-22T00:36:22;100183.00;;;2.83;100.00
10824;BME280;39116;59.332;18.034;2023-03-22T00:38:44;100177.84;;;2.83;100.00
10824;BME280;39116;59.332;18.034;2023-03-22T00:41:08;100178.16;;;2.94;100.00
10824;BME280;39116;59.332;18.034;2023-03-22T00:43:30;100158.28;;;2.88;100.00
10824;BME280;39116;59.332;18.034;2023-03-22T00:45:52;100156.19;;;3.03;100.00
10824;BME280;39116;59.332;18.034;2023-03-22T00:48:14;100154.59;;;2.78;100.00
10824;BME280;39116;59.332;18.034;2023-03-22T00:50:36;100152.13;;;2.83;100.00
10824;BME280;39116;59.332;18.034;2023-03-22T00:52:59;100149.66;;;2.86;100.00
10824;BME280;39116;59.332;18.034;2023-03-22T00:55:21;100111.59;;;2.74;100.00
10824;BME280;39116;59.332;18.034;2023-03-22T00:57:43;100148.16;;;2.93;100.00
10824;BME280;39116;59.332;18.034;2023-03-22T01:00:06;100127.44;;;2.88;100.00
10824;BME280;39116;59.332;18.034;2023-03-22T01:02:32;100133.69;;;2.96;100.00
10824;BME280;39116;59.332;18.034;2023-03-22T01:04:54;100109.63;;;2.94;100.00
10824;BME280;39116;59.332;18.034;2023-03-22T01:07:17;100125.34;;;3.03;100.00
10824;BME280;39116;59.332;18.034;2023-03-22T01:09:42;100106.88;;;2.88;100.00
10824;BME280;39116;59.332;18.034;2023-03-22T01:12:04;100110.41;;;2.92;100.00
10824;BME280;39116;59.332;18.034;2023-03-22T01:14:27;100106.94;;;2.90;100.00
10824;BME280;39116;59.332;18.034;2023-03-22T01:16:51;100098.66;;;3.01;100.00
10824;BME280;39116;59.332;18.034;2023-03-22T01:19:14;100089.13;;;2.97;100.00
10824;BME280;39116;59.332;18.034;2023-03-22T01:21:36;100089.34;;;3.03;100.00
10824;BME280;39116;59.332;18.034;2023-03-22T01:23:58;100068.31;;;2.88;100.00
10824;BME280;39116;59.332;18.034;2023-03-22T01:26:21;100073.97;;;2.76;100.00
10824;BME280;39116;59.332;18.034;2023-03-22T01:28:43;100071.63;;;2.84;100.00
10824;BME280;39116;59.332;18.034;2023-03-22T01:31:05;100066.41;;;2.81;100.00
10824;BME280;39116;59.332;18.034;2023-03-22T01:33:28;100059.59;;;2.83;100.00
10824;BME280;39116;59.332;18.034;2023-03-22T01:35:49;100055.25;;;2.80;100.00
10824;BME280;39116;59.332;18.034;2023-03-22T01:38:11;100056.22;;;2.84;100.00
10824;BME280;39116;59.332;18.034;2023-03-22T01:40:33;100042.34;;;2.79;100.00
10824;BME280;39116;59.332;18.034;2023-03-22T01:42:57;100027.34;;;2.62;100.00
10824;BME280;39116;59.332;18.034;2023-03-22T01:45:41;100032.81;;;2.75;100.00
10824;BME280;39116;59.332;18.034;2023-03-22T01:48:11;100035.41;;;2.75;100.00
10824;BME280;39116;59.332;18.034;2023-03-22T01:50:36;99980.03;;;2.56;100.00
10824;BME280;39116;59.332;18.034;2023-03-22T01:53:02;100024.38;;;2.79;100.00
10824;BME280;39116;59.332;18.034;2023-03-22T01:55:25;100020.88;;;2.77;100.00
10824;BME280;39116;59.332;18.034;2023-03-22T01:57:48;100022.59;;;2.78;100.00
10824;BME280;39116;59.332;18.034;2023-03-22T02:00:13;100015.69;;;2.75;100.00
10824;BME280;39116;59.332;18.034;2023-03-22T02:02:38;99968.59;;;2.44;100.00
10824;BME280;39116;59.332;18.034;2023-03-22T02:05:00;100006.22;;;2.74;100.00
10824;BME280;39116;59.332;18.034;2023-03-22T02:07:24;99992.63;;;2.77;100.00
10824;BME280;39116;59.332;18.034;2023-03-22T02:09:46;99996.00;;;2.76;100.00
10824;BME280;39116;59.332;18.034;2023-03-22T02:12:17;99978.38;;;2.90;100.00
10824;BME280;39116;59.332;18.034;2023-03-22T02:14:55;99984.06;;;2.78;100.00
10824;BME280;39116;59.332;18.034;2023-03-22T02:17:28;99972.06;;;2.77;100.00
10824;BME280;39116;59.332;18.034;2023-03-22T02:23:30;99959.19;;;2.77;100.00
10824;BME280;39116;59.332;18.034;2023-03-22T02:28:52;99949.78;;;2.77;100.00
10824;BME280;39116;59.332;18.034;2023-03-22T02:31:39;99945.50;;;2.78;100.00
10824;BME280;39116;59.332;18.034;2023-03-22T02:37:30;99931.63;;;2.71;100.00
10824;BME280;39116;59.332;18.034;2023-03-22T02:40:02;99924.78;;;2.72;100.00
10824;BME280;39116;59.332;18.034;2023-03-22T02:42:39;99925.69;;;2.74;100.00
10824;BME280;39116;59.332;18.034;2023-03-22T02:45:09;99918.31;;;2.86;100.00
10824;BME280;39116;59.332;18.034;2023-03-22T02:47:37;99900.00;;;2.74;100.00
10824;BME280;39116;59.332;18.034;2023-03-22T02:50:06;99918.31;;;2.86;100.00
10824;BME280;39116;59.332;18.034;2023-03-22T02:52:33;99926.69;;;2.79;100.00
10824;BME280;39116;59.332;18.034;2023-03-22T02:55:05;99919.78;;;2.78;100.00
10824;BME280;39116;59.332;18.034;2023-03-22T02:57:33;99903.84;;;2.90;100.00
10824;BME280;39116;59.332;18.034;2023-03-22T02:59:58;99886.38;;;2.78;100.00
10824;BME280;39116;59.332;18.034;2023-03-22T03:02:21;99905.28;;;2.80;100.00
10824;BME280;39116;59.332;18.034;2023-03-22T03:04:47;99895.75;;;2.76;100.00
10824;BME280;39116;59.332;18.034;2023-03-22T03:07:11;99889.72;;;2.74;100.00
10824;BME280;39116;59.332;18.034;2023-03-22T03:09:35;99890.84;;;2.85;100.00
10824;BME280;39116;59.332;18.034;2023-03-22T03:12:00;99879.84;;;2.89;100.00
10824;BME280;39116;59.332;18.034;2023-03-22T03:14:23;99888.28;;;2.85;100.00
10824;BME280;39116;59.332;18.034;2023-03-22T03:16:51;99883.44;;;2.97;100.00
10824;BME280;39116;59.332;18.034;2023-03-22T03:19:24;99870.91;;;2.75;100.00
10824;BME280;39116;59.332;18.034;2023-03-22T03:21:54;99869.47;;;2.86;100.00
10824;BME280;39116;59.332;18.034;2023-03-22T03:24:24;99873.03;;;2.91;100.00
10824;BME280;39116;59.332;18.034;2023-03-22T03:26:54;99867.88;;;2.91;100.00
10824;BME280;39116;59.332;18.034;2023-03-22T03:29:22;99860.00;;;2.85;100.00
10824;BME280;39116;59.332;18.034;2023-03-22T03:31:51;99849.78;;;2.86;100.00
10824;BME280;39116;59.332;18.034;2023-03-22T03:34:18;99844.00;;;2.95;100.00
10824;BME280;39116;59.332;18.034;2023-03-22T03:36:46;99847.75;;;3.10;100.00
10824;BME280;39116;59.332;18.034;2023-03-22T03:39:13;99834.00;;;3.08;100.00
10824;BME280;39116;59.332;18.034;2023-03-22T03:41:36;99826.97;;;3.00;100.00
10824;BME280;39116;59.332;18.034;2023-03-22T03:43:58;99819.31;;;3.02;100.00
10824;BME280;39116;59.332;18.034;2023-03-22T03:46:22;99826.38;;;3.12;100.00
10824;BME280;39116;59.332;18.034;2023-03-22T03:48:47;99813.44;;;3.08;100.00
10824;BME280;39116;59.332;18.034;2023-03-22T03:51:10;99822.13;;;3.13;100.00
10824;BME280;39116;59.332;18.034;2023-03-22T03:53:32;99815.91;;;3.04;100.00
10824;BME280;39116;59.332;18.034;2023-03-22T03:55:54;99800.63;;;3.09;100.00
10824;BME280;39116;59.332;18.034;2023-03-22T03:58:16;99816.34;;;3.23;100.00
10824;BME280;39116;59.332;18.034;2023-03-22T04:00:38;99693.78;;;2.47;100.00
10824;BME280;39116;59.332;18.034;2023-03-22T04:03:02;99704.19;;;2.52;100.00
10824;BME280;39116;59.332;18.034;2023-03-22T04:05:25;99814.19;;;3.03;100.00
10824;BME280;39116;59.332;18.034;2023-03-22T04:07:47;99800.50;;;3.04;100.00
10824;BME280;39116;59.332;18.034;2023-03-22T04:10:09;99807.47;;;3.10;100.00
10824;BME280;39116;59.332;18.034;2023-03-22T04:12:31;99796.44;;;3.14;100.00
10824;BME280;39116;59.332;18.034;2023-03-22T04:14:53;99787.09;;;3.19;100.00
10824;BME280;39116;59.332;18.034;2023-03-22T04:17:15;99777.50;;;3.11;100.00
10824;BME280;39116;59.332;18.034;2023-03-22T04:19:38;99774.25;;;3.18;100.00
10824;BME280;39116;59.332;18.034;2023-03-22T04:22:00;99776.72;;;3.15;100.00
10824;BME280;39116;59.332;18.034;2023-03-22T04:24:22;99778.16;;;3.02;100.00
10824;BME280;39116;59.332;18.034;2023-03-22T04:26:44;99767.91;;;3.03;100.00
10824;BME280;39116;59.332;18.034;2023-03-22T04:29:06;99761.94;;;3.04;100.00
10824;BME280;39116;59.332;18.034;2023-03-22T04:31:29;99774.16;;;3.15;100.00
10824;BME280;39116;59.332;18.034;2023-03-22T04:33:51;99761.22;;;3.12;100.00
10824;BME280;39116;59.332;18.034;2023-03-22T04:36:17;99762.97;;;3.13;100.00
10824;BME280;39116;59.332;18.034;2023-03-22T04:38:39;99763.09;;;3.19;100.00
10824;BME280;39116;59.332;18.034;2023-03-22T04:41:01;99755.53;;;3.25;100.00
10824;BME280;39116;59.332;18.034;2023-03-22T04:43:23;99748.47;;;3.16;100.00
10824;BME280;39116;59.332;18.034;2023-03-22T04:45:45;99752.03;;;3.23;100.00
10824;BME280;39116;59.332;18.034;2023-03-22T04:48:08;99747.03;;;3.29;100.00
10824;BME280;39116;59.332;18.034;2023-03-22T04:50:30;99749.84;;;3.40;100.00
10824;BME280;39116;59.332;18.034;2023-03-22T04:52:53;99738.63;;;3.36;100.00
10824;BME280;39116;59.332;18.034;2023-03-22T04:55:17;99741.91;;;3.29;100.00
10824;BME280;39116;59.332;18.034;2023-03-22T04:57:39;99734.41;;;3.40;100.00
10824;BME280;39116;59.332;18.034;2023-03-22T05:00:03;99728.41;;;3.39;100.00
10824;BME280;39116;59.332;18.034;2023-03-22T05:02:28;99719.00;;;3.41;100.00
10824;BME280;39116;59.332;18.034;2023-03-22T05:04:49;99719.03;;;3.44;100.00
10824;BME280;39116;59.332;18.034;2023-03-22T05:07:11;99703.31;;;3.29;100.00
10824;BME280;39116;59.332;18.034;2023-03-22T05:09:35;99619.28;;;2.85;100.00
10824;BME280;39116;59.332;18.034;2023-03-22T05:11:56;99703.50;;;3.38;100.00
10824;BME280;39116;59.332;18.034;2023-03-22T05:14:19;99709.69;;;3.47;100.00
10824;BME280;39116;59.332;18.034;2023-03-22T05:16:40;99710.66;;;3.53;100.00
10824;BME280;39116;59.332;18.034;2023-03-22T05:19:02;99699.19;;;3.37;100.00
10824;BME280;39116;59.332;18.034;2023-03-22T05:21:26;99702.78;;;3.46;100.00
10824;BME280;39116;59.332;18.034;2023-03-22T05:23:48;99698.84;;;3.63;100.00
10824;BME280;39116;59.332;18.034;2023-03-22T05:26:12;99699.66;;;3.62;100.00
10824;BME280;39116;59.332;18.034;2023-03-22T05:28:35;99695.63;;;3.73;100.00
10824;BME280;39116;59.332;18.034;2023-03-22T05:30:58;99690.47;;;3.75;100.00
10824;BME280;39116;59.332;18.034;2023-03-22T05:33:20;99680.22;;;3.76;100.00
10824;BME280;39116;59.332;18.034;2023-03-22T05:35:42;99678.31;;;3.66;100.00
10824;BME280;39116;59.332;18.034;2023-03-22T05:38:05;99663.84;;;3.73;100.00
10824;BME280;39116;59.332;18.034;2023-03-22T05:40:27;99672.78;;;3.92;100.00
10824;BME280;39116;59.332;18.034;2023-03-22T05:42:50;99666.75;;;3.46;100.00
10824;BME280;39116;59.332;18.034;2023-03-22T05:45:12;99657.78;;;3.69;100.00
10824;BME280;39116;59.332;18.034;2023-03-22T05:47:34;99661.13;;;3.65;100.00
10824;BME280;39116;59.332;18.034;2023-03-22T05:49:58;99658.66;;;3.70;100.00
10824;BME280;39116;59.332;18.034;2023-03-22T05:52:20;99652.81;;;3.80;100.00
10824;BME280;39116;59.332;18.034;2023-03-22T05:54:42;99652.94;;;3.86;100.00
10824;BME280;39116;59.332;18.034;2023-03-22T05:57:04;99654.63;;;3.86;100.00
10824;BME280;39116;59.332;18.034;2023-03-22T05:59:27;99647.78;;;3.86;100.00
10824;BME280;39116;59.332;18.034;2023-03-22T06:01:49;99646.75;;;3.76;100.00
10824;BME280;39116;59.332;18.034;2023-03-22T06:04:11;99647.91;;;3.94;100.00
10824;BME280;39116;59.332;18.034;2023-03-22T06:06:33;99651.09;;;3.79;100.00
10824;BME280;39116;59.332;18.034;2023-03-22T06:08:55;99653.94;;;3.94;100.00
10824;BME280;39116;59.332;18.034;2023-03-22T06:11:17;99638.56;;;3.99;100.00
10824;BME280;39116;59.332;18.034;2023-03-22T06:13:39;99640.19;;;3.94;100.00
10824;BME280;39116;59.332;18.034;2023-03-22T06:16:03;99633.50;;;4.05;100.00
10824;BME280;39116;59.332;18.034;2023-03-22T06:18:25;99636.81;;;3.98;100.00
10824;BME280;39116;59.332;18.034;2023-03-22T06:20:47;99642.75;;;3.92;100.00
10824;BME280;39116;59.332;18.034;2023-03-22T06:23:09;99646.72;;;3.73;100.00
10824;BME280;39116;59.332;18.034;2023-03-22T06:25:31;99644.34;;;3.86;100.00
10824;BME280;39116;59.332;18.034;2023-03-22T06:27:53;99644.44;;;3.90;100.00
10824;BME280;39116;59.332;18.034;2023-03-22T06:30:15;99641.88;;;3.92;100.00
10824;BME280;39116;59.332;18.034;2023-03-22T06:32:38;99632.56;;;3.98;100.00
10824;BME280;39116;59.332;18.034;2023-03-22T06:35:00;99633.34;;;3.96;100.00
10824;BME280;39116;59.332;18.034;2023-03-22T06:37:24;99640.50;;;4.12;100.00
10824;BME280;39116;59.332;18.034;2023-03-22T06:39:46;99634.53;;;4.15;100.00
10824;BME280;39116;59.332;18.034;2023-03-22T06:42:08;99614.72;;;4.12;100.00
10824;BME280;39116;59.332;18.034;2023-03-22T06:44:30;99626.19;;;4.30;100.00
10824;BME280;39116;59.332;18.034;2023-03-22T06:46:51;99623.84;;;4.45;100.00
10824;BME280;39116;59.332;18.034;2023-03-22T06:49:15;99625.38;;;4.34;100.00
10824;BME280;39116;59.332;18.034;2023-03-22T06:51:38;99606.31;;;4.23;100.00
10824;BME280;39116;59.332;18.034;2023-03-22T06:54:00;99510.22;;;3.69;100.00
10824;BME280;39116;59.332;18.034;2023-03-22T06:56:22;99596.22;;;4.35;100.00
10824;BME280;39116;59.332;18.034;2023-03-22T06:58:44;99625.50;;;4.40;100.00
10824;BME280;39116;59.332;18.034;2023-03-22T07:01:06;99611.94;;;4.53;100.00
10824;BME280;39116;59.332;18.034;2023-03-22T07:03:28;99579.91;;;4.37;100.00
10824;BME280;39116;59.332;18.034;2023-03-22T07:05:51;99602.44;;;4.51;100.00
10824;BME280;39116;59.332;18.034;2023-03-22T07:08:13;99609.44;;;4.61;100.00
10824;BME280;39116;59.332;18.034;2023-03-22T07:10:35;99607.56;;;4.49;100.00
10824;BME280;39116;59.332;18.034;2023-03-22T07:12:57;99603.59;;;4.71;100.00
10824;BME280;39116;59.332;18.034;2023-03-22T07:15:19;99591.41;;;4.59;100.00
10824;BME280;39116;59.332;18.034;2023-03-22T07:17:43;99588.19;;;4.79;100.00
10824;BME280;39116;59.332;18.034;2023-03-22T07:20:06;99595.09;;;4.78;100.00
10824;BME280;39116;59.332;18.034;2023-03-22T07:22:30;99604.41;;;4.69;100.00
10824;BME280;39116;59.332;18.034;2023-03-22T07:24:52;99470.25;;;3.94;100.00
10824;BME280;39116;59.332;18.034;2023-03-22T07:27:14;99601.97;;;4.80;100.00
10824;BME280;39116;59.332;18.034;2023-03-22T07:29:36;99602.91;;;4.85;100.00
10824;BME280;39116;59.332;18.034;2023-03-22T07:31:57;99600.47;;;4.95;100.00
10824;BME280;39116;59.332;18.034;2023-03-22T07:34:19;99591.97;;;5.06;100.00
10824;BME280;39116;59.332;18.034;2023-03-22T07:36:41;99595.41;;;5.03;100.00
10824;BME280;39116;59.332;18.034;2023-03-22T07:39:05;99599.72;;;5.06;100.00
10824;BME280;39116;59.332;18.034;2023-03-22T07:41:26;99592.88;;;5.09;100.00
10824;BME280;39116;59.332;18.034;2023-03-22T07:43:50;99468.50;;;4.57;100.00
10824;BME280;39116;59.332;18.034;2023-03-22T07:46:11;99593.09;;;5.26;100.00
10824;BME280;39116;59.332;18.034;2023-03-22T07:48:33;99593.13;;;5.31;100.00
10824;BME280;39116;59.332;18.034;2023-03-22T07:50:55;99585.50;;;5.42;100.00
10824;BME280;39116;59.332;18.034;2023-03-22T07:53:17;99578.66;;;5.47;100.00
10824;BME280;39116;59.332;18.034;2023-03-22T07:55:41;99570.00;;;5.40;100.00
10824;BME280;39116;59.332;18.034;2023-03-22T07:58:03;99558.06;;;5.50;100.00
10824;BME280;39116;59.332;18.034;2023-03-22T08:00:26;99561.59;;;5.58;100.00
10824;BME280;39116;59.332;18.034;2023-03-22T08:02:48;99558.09;;;5.56;100.00
10824;BME280;39116;59.332;18.034;2023-03-22T08:05:10;99555.63;;;5.67;100.00
10824;BME280;39116;59.332;18.034;2023-03-22T08:07:32;99549.56;;;5.63;100.00
10824;BME280;39116;59.332;18.034;2023-03-22T08:09:54;99557.97;;;5.41;100.00
10824;BME280;39116;59.332;18.034;2023-03-22T08:12:18;99525.22;;;5.38;100.00
10824;BME280;39116;59.332;18.034;2023-03-22T08:14:40;99565.03;;;5.60;100.00
10824;BME280;39116;59.332;18.034;2023-03-22T08:17:02;99562.44;;;5.59;100.00
10824;BME280;39116;59.332;18.034;2023-03-22T08:19:24;99549.66;;;5.72;100.00
10824;BME280;39116;59.332;18.034;2023-03-22T08:21:46;99553.13;;;5.74;100.00
10824;BME280;39116;59.332;18.034;2023-03-22T08:24:08;99542.94;;;5.95;100.00
10824;BME280;39116;59.332;18.034;2023-03-22T08:26:30;99544.56;;;5.82;100.00
10824;BME280;39116;59.332;18.034;2023-03-22T08:28:53;99551.50;;;5.89;100.00
10824;BME280;39116;59.332;18.034;2023-03-22T08:31:16;99538.63;;;5.95;100.00
10824;BME280;39116;59.332;18.034;2023-03-22T08:33:39;99544.75;;;6.00;100.00
10824;BME280;39116;59.332;18.034;2023-03-22T08:36:05;99528.25;;;5.87;100.00
10824;BME280;39116;59.332;18.034;2023-03-22T08:38:27;99528.25;;;5.86;100.00
10824;BME280;39116;59.332;18.034;2023-03-22T08:40:50;99520.66;;;6.04;100.00
10824;BME280;39116;59.332;18.034;2023-03-22T08:43:12;99525.00;;;6.08;100.00
10824;BME280;39116;59.332;18.034;2023-03-22T08:45:35;99524.19;;;6.16;100.00
10824;BME280;39116;59.332;18.034;2023-03-22T08:47:57;99521.50;;;6.02;100.00
10824;BME280;39116;59.332;18.034;2023-03-22T08:50:20;99517.16;;;5.96;100.00
10824;BME280;39116;59.332;18.034;2023-03-22T08:52:42;99507.59;;;5.92;100.00
10824;BME280;39116;59.332;18.034;2023-03-22T08:55:06;99524.03;;;5.96;100.00
10824;BME280;39116;59.332;18.034;2023-03-22T08:57:28;99527.53;;;6.02;100.00
10824;BME280;39116;59.332;18.034;2023-03-22T08:59:50;99532.81;;;6.18;100.00
10824;BME280;39116;59.332;18.034;2023-03-22T09:02:14;99513.81;;;6.13;100.00
10824;BME280;39116;59.332;18.034;2023-03-22T09:04:36;99530.31;;;6.30;100.00
10824;BME280;39116;59.332;18.034;2023-03-22T09:06:57;99524.38;;;6.53;100.00
10824;BME280;39116;59.332;18.034;2023-03-22T09:09:19;99524.38;;;6.48;100.00
10824;BME280;39116;59.332;18.034;2023-03-22T09:11:41;99505.38;;;6.43;100.00
10824;BME280;39116;59.332;18.034;2023-03-22T09:14:04;99506.25;;;6.46;100.00
10824;BME280;39116;59.332;18.034;2023-03-22T09:16:26;99506.31;;;6.60;100.00
10824;BME280;39116;59.332;18.034;2023-03-22T09:18:49;99498.56;;;6.62;100.00
10824;BME280;39116;59.332;18.034;2023-03-22T09:21:11;99493.44;;;6.68;100.00
10824;BME280;39116;59.332;18.034;2023-03-22T09:23:33;99498.66;;;6.86;100.00
10824;BME280;39116;59.332;18.034;2023-03-22T09:25:58;99489.16;;;6.79;100.00
10824;BME280;39116;59.332;18.034;2023-03-22T09:28:21;99496.06;;;6.86;100.00
10824;BME280;39116;59.332;18.034;2023-03-22T09:30:43;99494.28;;;6.68;100.00
10824;BME280;39116;59.332;18.034;2023-03-22T09:33:05;99488.31;;;6.80;100.00
10824;BME280;39116;59.332;18.034;2023-03-22T09:35:29;99490.91;;;6.96;100.00
10824;BME280;39116;59.332;18.034;2023-03-22T09:37:52;99473.69;;;7.01;100.00
10824;BME280;39116;59.332;18.034;2023-03-22T09:40:15;99476.31;;;7.16;100.00
10824;BME280;39116;59.332;18.034;2023-03-22T09:42:40;99464.22;;;7.09;100.00
10824;BME280;39116;59.332;18.034;2023-03-22T09:45:05;99474.53;;;7.03;100.00
10824;BME280;39116;59.332;18.034;2023-03-22T09:47:33;99473.75;;;7.27;100.00
10824;BME280;39116;59.332;18.034;2023-03-22T09:50:03;99460.78;;;7.25;100.00
10824;BME280;39116;59.332;18.034;2023-03-22T09:52:28;99358.91;;;6.53;100.00
10824;BME280;39116;59.332;18.034;2023-03-22T09:54:50;99463.34;;;7.05;100.00
10824;BME280;39116;59.332;18.034;2023-03-22T09:57:20;99456.47;;;7.26;100.00
10824;BME280;39116;59.332;18.034;2023-03-22T09:59:51;99448.69;;;7.34;100.00
10824;BME280;39116;59.332;18.034;2023-03-22T10:02:37;99439.22;;;7.43;100.00
10824;BME280;39116;59.332;18.034;2023-03-22T10:05:11;99432.31;;;7.58;100.00
10824;BME280;39116;59.332;18.034;2023-03-22T10:07:45;99440.06;;;7.78;100.00
10824;BME280;39116;59.332;18.034;2023-03-22T10:10:26;99433.19;;;7.64;100.00
10824;BME280;39116;59.332;18.034;2023-03-22T10:12:52;99431.44;;;7.63;100.00
10824;BME280;39116;59.332;18.034;2023-03-22T10:15:17;99429.69;;;7.75;100.00
10824;BME280;39116;59.332;18.034;2023-03-22T10:17:43;99426.28;;;7.57;100.00
10824;BME280;39116;59.332;18.034;2023-03-22T10:20:09;99437.50;;;7.58;100.00
10824;BME280;39116;59.332;18.034;2023-03-22T10:22:43;99435.75;;;7.46;100.00
10824;BME280;39116;59.332;18.034;2023-03-22T10:25:07;99440.94;;;7.57;100.00
10824;BME280;39116;59.332;18.034;2023-03-22T10:27:30;99429.72;;;7.44;100.00
10824;BME280;39116;59.332;18.034;2023-03-22T10:29:54;99443.53;;;7.34;100.00
10824;BME280;39116;59.332;18.034;2023-03-22T10:32:22;99451.28;;;7.46;100.00
10824;BME280;39116;59.332;18.034;2023-03-22T10:34:47;99443.53;;;7.37;100.00
10824;BME280;39116;59.332;18.034;2023-03-22T10:37:13;99440.94;;;7.37;100.00
10824;BME280;39116;59.332;18.034;2023-03-22T10:39:38;99441.81;;;7.45;100.00
10824;BME280;39116;59.332;18.034;2023-03-22T10:42:04;99459.06;;;7.46;100.00
10824;BME280;39116;59.332;18.034;2023-03-22T10:44:28;99437.50;;;7.35;100.00
10824;BME280;39116;59.332;18.034;2023-03-22T10:46:52;99450.44;;;7.47;100.00
10824;BME280;39116;59.332;18.034;2023-03-22T10:49:20;99467.69;;;7.53;100.00
10824;BME280;39116;59.332;18.034;2023-03-22T10:51:46;99443.50;;;7.86;100.00
10824;BME280;39116;59.332;18.034;2023-03-22T10:54:12;99434.91;;;7.72;100.00
10824;BME280;39116;59.332;18.034;2023-03-22T10:56:35;99433.16;;;7.58;100.00
10824;BME280;39116;59.332;18.034;2023-03-22T10:58:57;99420.19;;;7.80;100.00
10824;BME280;39116;59.332;18.034;2023-03-22T11:01:25;99419.31;;;7.90;100.00
10824;BME280;39116;59.332;18.034;2023-03-22T11:03:49;99427.09;;;7.79;100.00
10824;BME280;39116;59.332;18.034;2023-03-22T11:06:13;99413.28;;;7.87;100.00
10824;BME280;39116;59.332;18.034;2023-03-22T11:08:42;99416.66;;;8.09;100.00
10824;BME280;39116;59.332;18.034;2023-03-22T11:11:05;99404.50;;;8.21;100.00
10824;BME280;39116;59.332;18.034;2023-03-22T11:13:32;99324.38;;;7.68;100.00
10824;BME280;39116;59.332;18.034;2023-03-22T11:15:57;99411.47;;;8.09;100.00
10824;BME280;39116;59.332;18.034;2023-03-22T11:18:21;99409.78;;;8.05;100.00
10824;BME280;39116;59.332;18.034;2023-03-22T11:20:53;99412.38;;;8.05;100.00
10824;BME280;39116;59.332;18.034;2023-03-22T11:23:19;99402.88;;;7.97;100.00
10824;BME280;39116;59.332;18.034;2023-03-22T11:25:45;99410.59;;;8.19;100.00
10824;BME280;39116;59.332;18.034;2023-03-22T11:28:15;99236.53;;;6.83;100.00
10824;BME280;39116;59.332;18.034;2023-03-22T11:30:39;99395.03;;;8.13;100.00
10824;BME280;39116;59.332;18.034;2023-03-22T11:33:16;99408.97;;;7.81;100.00
10824;BME280;39116;59.332;18.034;2023-03-22T11:35:38;99399.47;;;7.86;100.00
10824;BME280;39116;59.332;18.034;2023-03-22T11:38:04;99409.81;;;7.81;100.00
10824;BME280;39116;59.332;18.034;2023-03-22T11:40:28;99403.78;;;7.78;100.00
10824;BME280;39116;59.332;18.034;2023-03-22T11:42:53;99404.66;;;7.74;100.00
10824;BME280;39116;59.332;18.034;2023-03-22T11:45:21;99400.31;;;7.85;100.00
10824;BME280;39116;59.332;18.034;2023-03-22T11:47:45;99394.25;;;7.92;100.00
10824;BME280;39116;59.332;18.034;2023-03-22T11:50:22;99388.25;;;7.79;100.00
10824;BME280;39116;59.332;18.034;2023-03-22T11:52:46;99393.41;;;7.84;100.00
10824;BME280;39116;59.332;18.034;2023-03-22T11:55:12;99393.41;;;7.92;100.00
10824;BME280;39116;59.332;18.034;2023-03-22T11:57:35;99396.00;;;7.86;100.00
10824;BME280;39116;59.332;18.034;2023-03-22T12:00:00;99386.47;;;7.92;100.00
10824;BME280;39116;59.332;18.034;2023-03-22T12:02:28;99368.28;;;8.09;100.00
10824;BME280;39116;59.332;18.034;2023-03-22T12:04:56;99372.50;;;8.27;100.00
10824;BME280;39116;59.332;18.034;2023-03-22T12:07:21;99360.41;;;8.31;100.00
10824;BME280;39116;59.332;18.034;2023-03-22T12:09:48;99370.81;;;8.29;100.00
10824;BME280;39116;59.332;18.034;2023-03-22T12:12:15;99358.63;;;8.50;100.00
10824;BME280;39116;59.332;18.034;2023-03-22T12:14:44;99329.34;;;8.21;100.00
10824;BME280;39116;59.332;18.034;2023-03-22T12:17:11;99341.31;;;8.52;100.00
10824;BME280;39116;59.332;18.034;2023-03-22T12:19:44;99349.88;;;8.66;100.00
10824;BME280;39116;59.332;18.034;2023-03-22T12:22:15;99344.59;;;8.75;100.00
10824;BME280;39116;59.332;18.034;2023-03-22T12:24:37;99330.81;;;8.70;100.00
10824;BME280;39116;59.332;18.034;2023-03-22T12:27:06;99336.63;;;9.02;100.00
10824;BME280;39116;59.332;18.034;2023-03-22T12:29:32;99334.09;;;8.95;100.00
10824;BME280;39116;59.332;18.034;2023-03-22T12:31:59;99327.25;;;8.87;100.00
10824;BME280;39116;59.332;18.034;2023-03-22T12:34:28;99324.56;;;8.96;100.00
10824;BME280;39116;59.332;18.034;2023-03-22T12:36:55;99328.09;;;8.87;100.00
10824;BME280;39116;59.332;18.034;2023-03-22T12:39:23;99336.81;;;8.77;100.00
10824;BME280;39116;59.332;18.034;2023-03-22T12:41:49;99336.78;;;8.85;100.00